EDLV/NRN METAR and TAF weather

Enter ICAO airport designator
Station Type Date Time Source
EDLV METAR 2019/10/18 06:20 UTC NOAA

EDLV 180620Z 17009KT CAVOK 13/12 Q1004


Station Type Date Time Source
EDLV Decoded METAR 2019/10/18 06:20 UTC NOAA

Niederrhein, Germany (EDLV) 51-36-09N 006-08-32E
Oct 18, 2019 - 02:20 AM EDT / 2019.10.18 0620 UTC
Wind: from the S (170 degrees) at 10 MPH (9 KT):0
Visibility: greater than 7 mile(s):0
Temperature: 55 F (13 C)
Dew Point: 53 F (12 C)
Relative Humidity: 93%
Pressure (altimeter): 29.65 in. Hg (1004 hPa)
ob: EDLV 180620Z 17009KT CAVOK 13/12 Q1004
cycle: 6

Station Type Date Time Source
EDLV TAF 2019/10/18 06:27 UTC NOAA

TAF EDLV 180500Z 1806/1906 18009KT 9999 BKN040
TEMPO 1807/1812 21015G30KT SHRA BKN030CB PROB30
TEMPO 1809/1812 21020G35KT 4500 TSRA BKN020CB
TEMPO 1812/1815 21015G25KT

Example: see airport list